sensor_id;sensor_type;location;lat;lon;timestamp;temperature;humidity
14359;DHT22;7263;49.418;11.064;2023-03-16T00:00:13;-2.70;99.90
14359;DHT22;7263;49.418;11.064;2023-03-16T00:02:41;-2.70;99.90
14359;DHT22;7263;49.418;11.064;2023-03-16T00:05:09;-2.70;99.90
14359;DHT22;7263;49.418;11.064;2023-03-16T00:10:05;-2.80;99.90
14359;DHT22;7263;49.418;11.064;2023-03-16T00:15:00;-2.90;99.90
14359;DHT22;7263;49.418;11.064;2023-03-16T00:17:28;-3.00;99.90
14359;DHT22;7263;49.418;11.064;2023-03-16T00:19:56;-3.00;99.90
14359;DHT22;7263;49.418;11.064;2023-03-16T00:22:25;-3.00;99.90
14359;DHT22;7263;49.418;11.064;2023-03-16T00:24:52;-3.00;99.90
14359;DHT22;7263;49.418;11.064;2023-03-16T00:27:20;-3.00;99.90
14359;DHT22;7263;49.418;11.064;2023-03-16T00:29:49;-3.00;99.90
14359;DHT22;7263;49.418;11.064;2023-03-16T00:35:46;-3.00;99.90
14359;DHT22;7263;49.418;11.064;2023-03-16T00:38:15;-3.00;99.90
14359;DHT22;7263;49.418;11.064;2023-03-16T00:43:09;-3.20;99.90
14359;DHT22;7263;49.418;11.064;2023-03-16T00:45:36;-3.20;99.90
14359;DHT22;7263;49.418;11.064;2023-03-16T00:48:02;-3.20;99.90
14359;DHT22;7263;49.418;11.064;2023-03-16T00:50:29;-3.20;99.90
14359;DHT22;7263;49.418;11.064;2023-03-16T00:52:57;-3.20;99.90
14359;DHT22;7263;49.418;11.064;2023-03-16T00:55:24;-3.30;99.90
14359;DHT22;7263;49.418;11.064;2023-03-16T01:00:19;-3.30;99.90
14359;DHT22;7263;49.418;11.064;2023-03-16T01:02:47;-3.30;99.90
14359;DHT22;7263;49.418;11.064;2023-03-16T01:05:14;-3.30;99.90
14359;DHT22;7263;49.418;11.064;2023-03-16T01:07:41;-3.20;99.90
14359;DHT22;7263;49.418;11.064;2023-03-16T01:10:11;-3.30;99.90
14359;DHT22;7263;49.418;11.064;2023-03-16T01:12:38;-3.30;99.90
14359;DHT22;7263;49.418;11.064;2023-03-16T01:15:06;-3.40;99.90
14359;DHT22;7263;49.418;11.064;2023-03-16T01:17:33;-3.40;99.90
14359;DHT22;7263;49.418;11.064;2023-03-16T01:20:00;-3.40;99.90
14359;DHT22;7263;49.418;11.064;2023-03-16T01:22:27;-3.40;99.90
14359;DHT22;7263;49.418;11.064;2023-03-16T01:27:22;-3.50;99.90
14359;DHT22;7263;49.418;11.064;2023-03-16T01:29:50;-3.40;99.90
14359;DHT22;7263;49.418;11.064;2023-03-16T01:32:17;-3.30;99.90
14359;DHT22;7263;49.418;11.064;2023-03-16T01:34:44;-3.20;99.90
14359;DHT22;7263;49.418;11.064;2023-03-16T01:37:11;-3.10;99.90
14359;DHT22;7263;49.418;11.064;2023-03-16T01:39:37;-3.00;99.90
14359;DHT22;7263;49.418;11.064;2023-03-16T01:44:52;-3.00;99.90
14359;DHT22;7263;49.418;11.064;2023-03-16T01:47:20;-3.00;99.90
14359;DHT22;7263;49.418;11.064;2023-03-16T01:49:47;-3.00;99.90
14359;DHT22;7263;49.418;11.064;2023-03-16T01:52:19;-3.00;99.90
14359;DHT22;7263;49.418;11.064;2023-03-16T01:54:49;-3.10;99.90
14359;DHT22;7263;49.418;11.064;2023-03-16T01:57:19;-3.10;99.90
14359;DHT22;7263;49.418;11.064;2023-03-16T01:59:49;-3.00;99.90
14359;DHT22;7263;49.418;11.064;2023-03-16T02:02:20;-3.00;99.90
14359;DHT22;7263;49.418;11.064;2023-03-16T02:04:50;-3.00;99.90
14359;DHT22;7263;49.418;11.064;2023-03-16T02:07:21;-3.00;99.90
14359;DHT22;7263;49.418;11.064;2023-03-16T02:09:52;-3.00;99.90
14359;DHT22;7263;49.418;11.064;2023-03-16T02:12:20;-3.10;99.90
14359;DHT22;7263;49.418;11.064;2023-03-16T02:14:53;-3.10;99.90
14359;DHT22;7263;49.418;11.064;2023-03-16T02:17:24;-3.10;99.90
14359;DHT22;7263;49.418;11.064;2023-03-16T02:19:59;-3.10;99.90
14359;DHT22;7263;49.418;11.064;2023-03-16T02:22:33;-3.20;99.90
14359;DHT22;7263;49.418;11.064;2023-03-16T02:25:01;-3.20;99.90
14359;DHT22;7263;49.418;11.064;2023-03-16T02:27:33;-3.20;99.90
14359;DHT22;7263;49.418;11.064;2023-03-16T02:30:08;-3.20;99.90
14359;DHT22;7263;49.418;11.064;2023-03-16T02:32:36;-3.30;99.90
14359;DHT22;7263;49.418;11.064;2023-03-16T02:35:06;-3.30;99.90
14359;DHT22;7263;49.418;11.064;2023-03-16T02:37:33;-3.30;99.90
14359;DHT22;7263;49.418;11.064;2023-03-16T02:40:00;-3.30;99.90
14359;DHT22;7263;49.418;11.064;2023-03-16T02:42:28;-3.20;99.90
14359;DHT22;7263;49.418;11.064;2023-03-16T02:44:57;-3.20;99.90
14359;DHT22;7263;49.418;11.064;2023-03-16T02:47:32;-3.30;99.90
14359;DHT22;7263;49.418;11.064;2023-03-16T02:49:59;-3.40;99.90
14359;DHT22;7263;49.418;11.064;2023-03-16T02:52:31;-3.40;99.90
14359;DHT22;7263;49.418;11.064;2023-03-16T02:54:57;-3.40;99.90
14359;DHT22;7263;49.418;11.064;2023-03-16T02:59:51;-3.40;99.90
14359;DHT22;7263;49.418;11.064;2023-03-16T03:02:18;-3.40;99.90
14359;DHT22;7263;49.418;11.064;2023-03-16T03:04:46;-3.50;99.90
14359;DHT22;7263;49.418;11.064;2023-03-16T03:07:14;-3.50;99.90
14359;DHT22;7263;49.418;11.064;2023-03-16T03:09:41;-3.50;99.90
14359;DHT22;7263;49.418;11.064;2023-03-16T03:12:08;-3.60;99.90
14359;DHT22;7263;49.418;11.064;2023-03-16T03:14:36;-3.50;99.90
14359;DHT22;7263;49.418;11.064;2023-03-16T03:17:03;-3.50;99.90
14359;DHT22;7263;49.418;11.064;2023-03-16T03:22:01;-3.40;99.90
14359;DHT22;7263;49.418;11.064;2023-03-16T03:24:31;-3.50;99.90
14359;DHT22;7263;49.418;11.064;2023-03-16T03:26:58;-3.50;99.90
14359;DHT22;7263;49.418;11.064;2023-03-16T03:29:28;-3.60;99.90
14359;DHT22;7263;49.418;11.064;2023-03-16T03:31:59;-3.70;99.90
14359;DHT22;7263;49.418;11.064;2023-03-16T03:34:27;-3.70;99.90
14359;DHT22;7263;49.418;11.064;2023-03-16T03:36:54;-3.80;99.90
14359;DHT22;7263;49.418;11.064;2023-03-16T03:39:22;-3.80;99.90
14359;DHT22;7263;49.418;11.064;2023-03-16T03:41:49;-3.90;99.90
14359;DHT22;7263;49.418;11.064;2023-03-16T03:44:19;-3.90;99.90
14359;DHT22;7263;49.418;11.064;2023-03-16T03:46:45;-3.90;99.90
14359;DHT22;7263;49.418;11.064;2023-03-16T03:49:12;-3.90;99.90
14359;DHT22;7263;49.418;11.064;2023-03-16T03:51:39;-3.90;99.90
14359;DHT22;7263;49.418;11.064;2023-03-16T03:54:07;-4.00;99.90
14359;DHT22;7263;49.418;11.064;2023-03-16T03:56:35;-4.00;99.90
14359;DHT22;7263;49.418;11.064;2023-03-16T03:59:02;-3.90;99.90
14359;DHT22;7263;49.418;11.064;2023-03-16T04:01:29;-4.00;99.90
14359;DHT22;7263;49.418;11.064;2023-03-16T04:03:56;-3.90;99.90
14359;DHT22;7263;49.418;11.064;2023-03-16T04:06:22;-3.90;99.90
14359;DHT22;7263;49.418;11.064;2023-03-16T04:11:18;-3.90;99.90
14359;DHT22;7263;49.418;11.064;2023-03-16T04:13:47;-3.90;99.90
14359;DHT22;7263;49.418;11.064;2023-03-16T04:18:43;-4.00;99.90
14359;DHT22;7263;49.418;11.064;2023-03-16T04:21:13;-4.00;99.90
14359;DHT22;7263;49.418;11.064;2023-03-16T04:23:41;-4.00;99.90
14359;DHT22;7263;49.418;11.064;2023-03-16T04:26:08;-4.00;99.90
14359;DHT22;7263;49.418;11.064;2023-03-16T04:28:35;-3.90;99.90
14359;DHT22;7263;49.418;11.064;2023-03-16T04:31:05;-3.90;99.90
14359;DHT22;7263;49.418;11.064;2023-03-16T04:33:32;-4.00;99.90
14359;DHT22;7263;49.418;11.064;2023-03-16T04:36:00;-3.80;99.90
14359;DHT22;7263;49.418;11.064;2023-03-16T04:38:28;-3.80;99.90
14359;DHT22;7263;49.418;11.064;2023-03-16T04:40:55;-3.80;99.90
14359;DHT22;7263;49.418;11.064;2023-03-16T04:43:22;-3.80;99.90
14359;DHT22;7263;49.418;11.064;2023-03-16T04:45:49;-3.90;99.90
14359;DHT22;7263;49.418;11.064;2023-03-16T04:48:17;-3.80;99.90
14359;DHT22;7263;49.418;11.064;2023-03-16T04:50:44;-3.80;99.90
14359;DHT22;7263;49.418;11.064;2023-03-16T04:53:12;-3.90;99.90
14359;DHT22;7263;49.418;11.064;2023-03-16T04:55:39;-3.90;99.90
14359;DHT22;7263;49.418;11.064;2023-03-16T04:58:06;-3.90;99.90
14359;DHT22;7263;49.418;11.064;2023-03-16T05:00:33;-3.90;99.90
14359;DHT22;7263;49.418;11.064;2023-03-16T05:03:00;-3.90;99.90
14359;DHT22;7263;49.418;11.064;2023-03-16T05:05:29;-3.90;99.90
14359;DHT22;7263;49.418;11.064;2023-03-16T05:07:56;-3.80;99.90
14359;DHT22;7263;49.418;11.064;2023-03-16T05:10:23;-3.80;99.90
14359;DHT22;7263;49.418;11.064;2023-03-16T05:12:50;-3.80;99.90
14359;DHT22;7263;49.418;11.064;2023-03-16T05:15:17;-3.70;99.90
14359;DHT22;7263;49.418;11.064;2023-03-16T05:17:44;-3.80;99.90
14359;DHT22;7263;49.418;11.064;2023-03-16T05:20:12;-3.80;99.90
14359;DHT22;7263;49.418;11.064;2023-03-16T05:22:42;-3.70;99.90
14359;DHT22;7263;49.418;11.064;2023-03-16T05:25:09;-3.80;99.90
14359;DHT22;7263;49.418;11.064;2023-03-16T05:27:39;-3.80;99.90
14359;DHT22;7263;49.418;11.064;2023-03-16T05:30:07;-3.80;99.90
14359;DHT22;7263;49.418;11.064;2023-03-16T05:32:34;-3.80;99.90
14359;DHT22;7263;49.418;11.064;2023-03-16T05:35:01;-3.80;99.90
14359;DHT22;7263;49.418;11.064;2023-03-16T05:37:28;-3.80;99.90
14359;DHT22;7263;49.418;11.064;2023-03-16T05:39:57;-3.80;99.90
14359;DHT22;7263;49.418;11.064;2023-03-16T05:42:24;-3.80;99.90
14359;DHT22;7263;49.418;11.064;2023-03-16T05:44:52;-3.80;99.90
14359;DHT22;7263;49.418;11.064;2023-03-16T05:47:19;-3.80;99.90
14359;DHT22;7263;49.418;11.064;2023-03-16T05:49:45;-3.70;99.90
14359;DHT22;7263;49.418;11.064;2023-03-16T05:52:12;-3.80;99.90
14359;DHT22;7263;49.418;11.064;2023-03-16T05:54:39;-3.70;99.90
14359;DHT22;7263;49.418;11.064;2023-03-16T05:57:08;-3.70;99.90
14359;DHT22;7263;49.418;11.064;2023-03-16T05:59:35;-3.60;99.90
14359;DHT22;7263;49.418;11.064;2023-03-16T06:02:02;-3.60;99.90
14359;DHT22;7263;49.418;11.064;2023-03-16T06:04:29;-3.30;99.90
14359;DHT22;7263;49.418;11.064;2023-03-16T06:06:56;-3.40;99.90
14359;DHT22;7263;49.418;11.064;2023-03-16T06:09:22;-3.20;99.90
14359;DHT22;7263;49.418;11.064;2023-03-16T06:11:49;-3.10;99.90
14359;DHT22;7263;49.418;11.064;2023-03-16T06:14:17;-2.90;99.90
14359;DHT22;7263;49.418;11.064;2023-03-16T06:16:44;-2.90;99.90
14359;DHT22;7263;49.418;11.064;2023-03-16T06:19:11;-2.80;99.90
14359;DHT22;7263;49.418;11.064;2023-03-16T06:21:37;-2.30;99.90
14359;DHT22;7263;49.418;11.064;2023-03-16T06:24:05;-2.20;99.90
14359;DHT22;7263;49.418;11.064;2023-03-16T06:26:33;-2.00;99.90
14359;DHT22;7263;49.418;11.064;2023-03-16T06:29:00;-1.70;99.90
14359;DHT22;7263;49.418;11.064;2023-03-16T06:31:28;-1.40;99.90
14359;DHT22;7263;49.418;11.064;2023-03-16T06:33:55;-1.10;99.90
14359;DHT22;7263;49.418;11.064;2023-03-16T06:36:22;-1.00;99.90
14359;DHT22;7263;49.418;11.064;2023-03-16T06:38:49;-0.90;99.90
14359;DHT22;7263;49.418;11.064;2023-03-16T06:41:16;-0.80;99.90
14359;DHT22;7263;49.418;11.064;2023-03-16T06:43:42;-0.70;99.90
14359;DHT22;7263;49.418;11.064;2023-03-16T06:46:09;-0.70;99.90
14359;DHT22;7263;49.418;11.064;2023-03-16T06:48:38;-0.70;99.90
14359;DHT22;7263;49.418;11.064;2023-03-16T06:51:06;-0.70;99.90
14359;DHT22;7263;49.418;11.064;2023-03-16T06:53:33;-0.60;99.90
14359;DHT22;7263;49.418;11.064;2023-03-16T06:55:59;-0.60;99.90
14359;DHT22;7263;49.418;11.064;2023-03-16T06:58:26;-0.70;99.90
14359;DHT22;7263;49.418;11.064;2023-03-16T07:00:53;-0.60;99.90
14359;DHT22;7263;49.418;11.064;2023-03-16T07:03:20;-0.60;99.90
14359;DHT22;7263;49.418;11.064;2023-03-16T07:05:48;-0.50;99.90
14359;DHT22;7263;49.418;11.064;2023-03-16T07:08:15;-0.10;99.90
14359;DHT22;7263;49.418;11.064;2023-03-16T07:10:41;-0.10;99.90
14359;DHT22;7263;49.418;11.064;2023-03-16T07:13:08;0.00;99.90
14359;DHT22;7263;49.418;11.064;2023-03-16T07:15:35;0.20;99.90
14359;DHT22;7263;49.418;11.064;2023-03-16T07:18:02;0.20;99.90
14359;DHT22;7263;49.418;11.064;2023-03-16T07:20:28;0.20;99.90
14359;DHT22;7263;49.418;11.064;2023-03-16T07:22:58;0.20;99.90
14359;DHT22;7263;49.418;11.064;2023-03-16T07:25:25;0.40;99.90
14359;DHT22;7263;49.418;11.064;2023-03-16T07:27:52;0.50;99.90
14359;DHT22;7263;49.418;11.064;2023-03-16T07:30:19;0.60;99.90
14359;DHT22;7263;49.418;11.064;2023-03-16T07:32:45;0.90;99.90
14359;DHT22;7263;49.418;11.064;2023-03-16T07:35:12;1.10;99.90
14359;DHT22;7263;49.418;11.064;2023-03-16T07:37:39;1.30;99.90
14359;DHT22;7263;49.418;11.064;2023-03-16T07:40:09;1.40;99.90
14359;DHT22;7263;49.418;11.064;2023-03-16T07:42:36;1.80;99.90
14359;DHT22;7263;49.418;11.064;2023-03-16T07:45:04;2.20;99.90
14359;DHT22;7263;49.418;11.064;2023-03-16T07:47:31;2.40;99.90
14359;DHT22;7263;49.418;11.064;2023-03-16T07:49:58;2.60;99.90
14359;DHT22;7263;49.418;11.064;2023-03-16T07:52:25;2.90;99.90
14359;DHT22;7263;49.418;11.064;2023-03-16T07:54:53;3.00;99.90
14359;DHT22;7263;49.418;11.064;2023-03-16T07:57:21;3.10;99.90
14359;DHT22;7263;49.418;11.064;2023-03-16T07:59:48;3.00;99.90
14359;DHT22;7263;49.418;11.064;2023-03-16T08:02:17;2.90;99.90
14359;DHT22;7263;49.418;11.064;2023-03-16T08:04:44;3.00;99.90
14359;DHT22;7263;49.418;11.064;2023-03-16T08:07:12;3.20;99.90
14359;DHT22;7263;49.418;11.064;2023-03-16T08:09:39;3.30;99.90
14359;DHT22;7263;49.418;11.064;2023-03-16T08:12:07;3.40;99.90
14359;DHT22;7263;49.418;11.064;2023-03-16T08:14:36;3.60;99.90
14359;DHT22;7263;49.418;11.064;2023-03-16T08:17:04;3.50;99.90
14359;DHT22;7263;49.418;11.064;2023-03-16T08:19:32;3.70;99.90
14359;DHT22;7263;49.418;11.064;2023-03-16T08:21:58;3.80;99.90
14359;DHT22;7263;49.418;11.064;2023-03-16T08:24:27;4.00;99.90
14359;DHT22;7263;49.418;11.064;2023-03-16T08:26:54;4.00;99.90
14359;DHT22;7263;49.418;11.064;2023-03-16T08:29:21;4.10;99.90
14359;DHT22;7263;49.418;11.064;2023-03-16T08:31:51;4.40;99.90
14359;DHT22;7263;49.418;11.064;2023-03-16T08:34:19;4.60;99.90
14359;DHT22;7263;49.418;11.064;2023-03-16T08:36:45;4.60;99.90
14359;DHT22;7263;49.418;11.064;2023-03-16T08:39:12;4.60;99.90
14359;DHT22;7263;49.418;11.064;2023-03-16T08:41:40;4.70;99.90
14359;DHT22;7263;49.418;11.064;2023-03-16T08:44:07;4.80;99.90
14359;DHT22;7263;49.418;11.064;2023-03-16T08:46:35;4.70;99.90
14359;DHT22;7263;49.418;11.064;2023-03-16T08:49:03;4.70;99.90
14359;DHT22;7263;49.418;11.064;2023-03-16T08:51:31;4.80;99.90
14359;DHT22;7263;49.418;11.064;2023-03-16T08:53:58;4.90;99.90
14359;DHT22;7263;49.418;11.064;2023-03-16T08:56:25;5.10;99.90
14359;DHT22;7263;49.418;11.064;2023-03-16T08:58:53;5.20;99.90
14359;DHT22;7263;49.418;11.064;2023-03-16T09:01:20;5.30;99.90
14359;DHT22;7263;49.418;11.064;2023-03-16T09:03:46;5.40;99.90
14359;DHT22;7263;49.418;11.064;2023-03-16T09:06:15;5.70;99.90
14359;DHT22;7263;49.418;11.064;2023-03-16T09:08:42;6.10;99.90
14359;DHT22;7263;49.418;11.064;2023-03-16T09:11:11;6.50;99.90
14359;DHT22;7263;49.418;11.064;2023-03-16T09:13:40;6.90;99.90
14359;DHT22;7263;49.418;11.064;2023-03-16T09:16:08;6.80;99.90
14359;DHT22;7263;49.418;11.064;2023-03-16T09:18:36;6.80;99.90
14359;DHT22;7263;49.418;11.064;2023-03-16T09:21:06;6.90;99.90
14359;DHT22;7263;49.418;11.064;2023-03-16T09:23:36;7.00;99.90
14359;DHT22;7263;49.418;11.064;2023-03-16T09:26:05;7.00;99.90
14359;DHT22;7263;49.418;11.064;2023-03-16T09:28:33;6.80;99.90
14359;DHT22;7263;49.418;11.064;2023-03-16T09:31:03;6.80;99.90
14359;DHT22;7263;49.418;11.064;2023-03-16T09:33:30;6.40;99.90
14359;DHT22;7263;49.418;11.064;2023-03-16T09:35:58;6.30;99.90
14359;DHT22;7263;49.418;11.064;2023-03-16T09:38:26;6.20;99.90
14359;DHT22;7263;49.418;11.064;2023-03-16T09:40:58;6.50;99.90
14359;DHT22;7263;49.418;11.064;2023-03-16T09:43:49;6.60;99.90
14359;DHT22;7263;49.418;11.064;2023-03-16T09:46:24;6.70;99.90
14359;DHT22;7263;49.418;11.064;2023-03-16T09:48:52;6.80;99.90
14359;DHT22;7263;49.418;11.064;2023-03-16T09:51:25;6.90;99.90
14359;DHT22;7263;49.418;11.064;2023-03-16T09:53:58;7.00;99.90
14359;DHT22;7263;49.418;11.064;2023-03-16T09:56:47;7.00;99.90
14359;DHT22;7263;49.418;11.064;2023-03-16T09:59:50;7.10;99.90
14359;DHT22;7263;49.418;11.064;2023-03-16T10:03:02;7.70;99.90
14359;DHT22;7263;49.418;11.064;2023-03-16T10:05:59;7.60;99.90
14359;DHT22;7263;49.418;11.064;2023-03-16T10:08:30;7.90;99.90
14359;DHT22;7263;49.418;11.064;2023-03-16T10:11:09;7.90;99.90
14359;DHT22;7263;49.418;11.064;2023-03-16T10:13:45;8.10;99.90
14359;DHT22;7263;49.418;11.064;2023-03-16T10:16:16;8.30;99.90
14359;DHT22;7263;49.418;11.064;2023-03-16T10:18:45;8.10;99.90
14359;DHT22;7263;49.418;11.064;2023-03-16T10:21:15;7.80;99.90
14359;DHT22;7263;49.418;11.064;2023-03-16T10:23:43;7.80;99.90
14359;DHT22;7263;49.418;11.064;2023-03-16T10:26:13;8.00;99.90
14359;DHT22;7263;49.418;11.064;2023-03-16T10:28:42;8.40;99.90
14359;DHT22;7263;49.418;11.064;2023-03-16T10:31:11;8.50;99.90
14359;DHT22;7263;49.418;11.064;2023-03-16T10:33:39;8.20;99.90
14359;DHT22;7263;49.418;11.064;2023-03-16T10:36:13;8.10;99.90
14359;DHT22;7263;49.418;11.064;2023-03-16T10:38:43;8.20;99.90
14359;DHT22;7263;49.418;11.064;2023-03-16T10:41:26;8.40;99.90
14359;DHT22;7263;49.418;11.064;2023-03-16T10:43:57;8.40;99.90
14359;DHT22;7263;49.418;11.064;2023-03-16T10:46:25;8.40;99.90
14359;DHT22;7263;49.418;11.064;2023-03-16T10:48:54;8.50;99.90
14359;DHT22;7263;49.418;11.064;2023-03-16T10:51:26;8.70;99.90
14359;DHT22;7263;49.418;11.064;2023-03-16T10:54:00;8.70;99.90
14359;DHT22;7263;49.418;11.064;2023-03-16T10:56:33;8.40;99.90
14359;DHT22;7263;49.418;11.064;2023-03-16T10:59:12;8.50;99.90
14359;DHT22;7263;49.418;11.064;2023-03-16T11:01:43;8.40;99.90
14359;DHT22;7263;49.418;11.064;2023-03-16T11:04:13;8.20;99.90
14359;DHT22;7263;49.418;11.064;2023-03-16T11:06:48;8.60;99.90
14359;DHT22;7263;49.418;11.064;2023-03-16T11:09:19;8.80;99.90
14359;DHT22;7263;49.418;11.064;2023-03-16T11:11:48;8.90;99.90
14359;DHT22;7263;49.418;11.064;2023-03-16T11:14:20;8.80;99.90
14359;DHT22;7263;49.418;11.064;2023-03-16T11:16:50;8.80;99.90
14359;DHT22;7263;49.418;11.064;2023-03-16T11:19:22;8.90;99.90
14359;DHT22;7263;49.418;11.064;2023-03-16T11:21:53;9.10;99.90
14359;DHT22;7263;49.418;11.064;2023-03-16T11:24:25;9.20;99.90
14359;DHT22;7263;49.418;11.064;2023-03-16T11:26:55;9.20;99.90
14359;DHT22;7263;49.418;11.064;2023-03-16T11:29:27;9.40;99.90
14359;DHT22;7263;49.418;11.064;2023-03-16T11:32:02;9.40;99.90
14359;DHT22;7263;49.418;11.064;2023-03-16T11:34:31;9.00;99.70
14359;DHT22;7263;49.418;11.064;2023-03-16T11:37:04;9.00;99.80
14359;DHT22;7263;49.418;11.064;2023-03-16T11:39:43;9.00;99.40
14359;DHT22;7263;49.418;11.064;2023-03-16T11:42:22;9.10;99.90
14359;DHT22;7263;49.418;11.064;2023-03-16T11:45:00;9.30;99.90
14359;DHT22;7263;49.418;11.064;2023-03-16T11:47:46;9.20;99.20
14359;DHT22;7263;49.418;11.064;2023-03-16T11:50:17;9.10;99.50
14359;DHT22;7263;49.418;11.064;2023-03-16T11:52:54;9.00;99.90
14359;DHT22;7263;49.418;11.064;2023-03-16T11:55:37;9.00;99.20
14359;DHT22;7263;49.418;11.064;2023-03-16T11:58:27;8.90;99.80
14359;DHT22;7263;49.418;11.064;2023-03-16T12:01:07;9.00;99.40
14359;DHT22;7263;49.418;11.064;2023-03-16T12:03:56;9.00;99.90
14359;DHT22;7263;49.418;11.064;2023-03-16T12:06:56;8.80;99.10
14359;DHT22;7263;49.418;11.064;2023-03-16T12:09:40;8.60;99.90
14359;DHT22;7263;49.418;11.064;2023-03-16T12:12:21;8.70;99.90
14359;DHT22;7263;49.418;11.064;2023-03-16T12:14:55;8.80;99.90
14359;DHT22;7263;49.418;11.064;2023-03-16T12:17:27;9.00;99.90
14359;DHT22;7263;49.418;11.064;2023-03-16T12:19:58;8.90;99.90
14359;DHT22;7263;49.418;11.064;2023-03-16T12:22:31;8.80;99.90
14359;DHT22;7263;49.418;11.064;2023-03-16T12:25:02;8.70;99.90
14359;DHT22;7263;49.418;11.064;2023-03-16T12:27:32;8.40;99.90
14359;DHT22;7263;49.418;11.064;2023-03-16T12:30:11;8.10;99.90
14359;DHT22;7263;49.418;11.064;2023-03-16T12:32:51;7.90;99.90
14359;DHT22;7263;49.418;11.064;2023-03-16T12:35:27;7.70;99.90
14359;DHT22;7263;49.418;11.064;2023-03-16T12:38:16;7.60;99.90
14359;DHT22;7263;49.418;11.064;2023-03-16T12:40:49;7.40;99.90
14359;DHT22;7263;49.418;11.064;2023-03-16T12:43:29;7.40;99.90
14359;DHT22;7263;49.418;11.064;2023-03-16T12:46:02;7.30;99.90
14359;DHT22;7263;49.418;11.064;2023-03-16T12:48:36;7.40;99.90
14359;DHT22;7263;49.418;11.064;2023-03-16T12:51:04;7.30;99.90
14359;DHT22;7263;49.418;11.064;2023-03-16T12:53:45;7.40;99.90
14359;DHT22;7263;49.418;11.064;2023-03-16T12:56:14;7.30;99.90
14359;DHT22;7263;49.418;11.064;2023-03-16T12:58:44;7.10;99.90
14359;DHT22;7263;49.418;11.064;2023-03-16T13:01:12;7.10;99.90
14359;DHT22;7263;49.418;11.064;2023-03-16T13:03:43;7.10;99.90
14359;DHT22;7263;49.418;11.064;2023-03-16T13:06:17;7.10;99.90
14359;DHT22;7263;49.418;11.064;2023-03-16T13:08:47;7.00;99.90
14359;DHT22;7263;49.418;11.064;2023-03-16T13:11:16;7.00;99.90
14359;DHT22;7263;49.418;11.064;2023-03-16T13:13:50;7.10;99.90
14359;DHT22;7263;49.418;11.064;2023-03-16T13:16:26;7.20;99.90
14359;DHT22;7263;49.418;11.064;2023-03-16T13:18:55;7.30;99.90
14359;DHT22;7263;49.418;11.064;2023-03-16T13:21:34;7.50;99.90
14359;DHT22;7263;49.418;11.064;2023-03-16T13:24:14;7.40;99.90
14359;DHT22;7263;49.418;11.064;2023-03-16T13:26:48;7.40;99.90
14359;DHT22;7263;49.418;11.064;2023-03-16T13:29:20;7.50;99.90
14359;DHT22;7263;49.418;11.064;2023-03-16T13:31:48;7.30;99.90
14359;DHT22;7263;49.418;11.064;2023-03-16T13:34:21;7.40;99.90
14359;DHT22;7263;49.418;11.064;2023-03-16T13:36:53;7.30;99.90
14359;DHT22;7263;49.418;11.064;2023-03-16T13:39:23;7.40;99.90
14359;DHT22;7263;49.418;11.064;2023-03-16T13:41:57;7.40;99.90
14359;DHT22;7263;49.418;11.064;2023-03-16T13:44:26;7.50;99.90
14359;DHT22;7263;49.418;11.064;2023-03-16T13:46:53;7.50;99.90
14359;DHT22;7263;49.418;11.064;2023-03-16T13:51:49;7.50;99.90
14359;DHT22;7263;49.418;11.064;2023-03-16T13:56:50;7.40;99.90
14359;DHT22;7263;49.418;11.064;2023-03-16T13:59:17;7.40;99.90
14359;DHT22;7263;49.418;11.064;2023-03-16T14:01:45;7.50;99.90
14359;DHT22;7263;49.418;11.064;2023-03-16T14:04:15;7.60;99.90
14359;DHT22;7263;49.418;11.064;2023-03-16T14:06:56;7.70;99.90
14359;DHT22;7263;49.418;11.064;2023-03-16T14:09:25;7.80;99.90
14359;DHT22;7263;49.418;11.064;2023-03-16T14:11:53;7.70;99.90
14359;DHT22;7263;49.418;11.064;2023-03-16T14:14:27;7.80;99.90
14359;DHT22;7263;49.418;11.064;2023-03-16T14:17:07;7.80;99.90
14359;DHT22;7263;49.418;11.064;2023-03-16T14:19:38;7.80;99.70
14359;DHT22;7263;49.418;11.064;2023-03-16T14:22:15;7.80;99.20
14359;DHT22;7263;49.418;11.064;2023-03-16T14:24:44;7.80;99.40
14359;DHT22;7263;49.418;11.064;2023-03-16T14:27:18;7.80;98.80
14359;DHT22;7263;49.418;11.064;2023-03-16T14:29:51;7.80;99.50
14359;DHT22;7263;49.418;11.064;2023-03-16T14:32:21;7.80;99.20
14359;DHT22;7263;49.418;11.064;2023-03-16T14:34:53;7.80;99.20
14359;DHT22;7263;49.418;11.064;2023-03-16T14:37:33;7.80;98.60
14359;DHT22;7263;49.418;11.064;2023-03-16T14:40:00;7.80;98.10
14359;DHT22;7263;49.418;11.064;2023-03-16T14:42:30;7.70;99.50
14359;DHT22;7263;49.418;11.064;2023-03-16T14:44:58;7.70;99.90
14359;DHT22;7263;49.418;11.064;2023-03-16T14:47:27;7.70;99.50
14359;DHT22;7263;49.418;11.064;2023-03-16T14:49:56;7.80;98.90
14359;DHT22;7263;49.418;11.064;2023-03-16T14:52:29;7.80;99.60
14359;DHT22;7263;49.418;11.064;2023-03-16T14:54:57;7.80;99.00
14359;DHT22;7263;49.418;11.064;2023-03-16T14:57:24;7.80;98.90
14359;DHT22;7263;49.418;11.064;2023-03-16T14:59:51;7.90;99.90
14359;DHT22;7263;49.418;11.064;2023-03-16T15:02:21;8.00;99.90
14359;DHT22;7263;49.418;11.064;2023-03-16T15:04:49;7.90;99.90
14359;DHT22;7263;49.418;11.064;2023-03-16T15:07:22;7.90;98.20
14359;DHT22;7263;49.418;11.064;2023-03-16T15:09:52;7.90;98.20
14359;DHT22;7263;49.418;11.064;2023-03-16T15:12:21;7.90;99.80
14359;DHT22;7263;49.418;11.064;2023-03-16T15:14:49;7.80;99.90
14359;DHT22;7263;49.418;11.064;2023-03-16T15:17:34;7.80;99.90
14359;DHT22;7263;49.418;11.064;2023-03-16T15:20:01;7.80;99.90
14359;DHT22;7263;49.418;11.064;2023-03-16T15:22:31;7.90;99.90
14359;DHT22;7263;49.418;11.064;2023-03-16T15:25:10;7.70;98.40
14359;DHT22;7263;49.418;11.064;2023-03-16T15:27:44;7.80;99.20
14359;DHT22;7263;49.418;11.064;2023-03-16T15:30:14;7.80;99.90
14359;DHT22;7263;49.418;11.064;2023-03-16T15:32:41;7.80;99.90
14359;DHT22;7263;49.418;11.064;2023-03-16T15:35:08;7.80;99.90
14359;DHT22;7263;49.418;11.064;2023-03-16T15:37:35;7.80;99.90
14359;DHT22;7263;49.418;11.064;2023-03-16T15:40:14;7.90;99.90
14359;DHT22;7263;49.418;11.064;2023-03-16T15:42:41;7.80;99.90
14359;DHT22;7263;49.418;11.064;2023-03-16T15:45:10;7.80;99.90
14359;DHT22;7263;49.418;11.064;2023-03-16T15:47:38;7.80;99.90
14359;DHT22;7263;49.418;11.064;2023-03-16T15:50:06;7.80;99.90
14359;DHT22;7263;49.418;11.064;2023-03-16T15:52:36;7.80;99.90
14359;DHT22;7263;49.418;11.064;2023-03-16T15:55:03;7.80;99.90
14359;DHT22;7263;49.418;11.064;2023-03-16T15:57:34;7.80;99.90
14359;DHT22;7263;49.418;11.064;2023-03-16T16:00:01;7.80;99.90
14359;DHT22;7263;49.418;11.064;2023-03-16T16:02:30;7.70;99.90
14359;DHT22;7263;49.418;11.064;2023-03-16T16:04:58;7.70;99.90
14359;DHT22;7263;49.418;11.064;2023-03-16T16:07:25;7.70;99.90
14359;DHT22;7263;49.418;11.064;2023-03-16T16:09:52;7.70;99.90
14359;DHT22;7263;49.418;11.064;2023-03-16T16:12:20;7.70;99.90
14359;DHT22;7263;49.418;11.064;2023-03-16T16:14:53;7.60;99.90
14359;DHT22;7263;49.418;11.064;2023-03-16T16:17:21;7.60;99.90
14359;DHT22;7263;49.418;11.064;2023-03-16T16:19:53;7.60;99.90
14359;DHT22;7263;49.418;11.064;2023-03-16T16:22:20;7.60;99.90
14359;DHT22;7263;49.418;11.064;2023-03-16T16:24:47;7.60;99.90
14359;DHT22;7263;49.418;11.064;2023-03-16T16:27:15;7.50;99.90
14359;DHT22;7263;49.418;11.064;2023-03-16T16:29:41;7.50;99.90